| Station | Date | Time | Temp (°F) | RH (%) | Dew Pt (°F) | Wind Spd (mph) | Wind Dir (°) | Wind Gust (mph) | Latest Rain (In) | Daily Rain (In) | Daily Max Temp (°F) | Daily Min Temp (°F) |
|---|---|---|---|---|---|---|---|---|---|---|---|---|
| Montesol | 9/1/26 | 0730 | 45.6 3.0 | - | - | - | - | - | 0.00 | 0.00 | 51.8 5.2 | 41.9 6.4 |
| Pope Valley (Weeks Lake) | 9/1/26 | 0730 | 45.5 2.9 | 100 0 | 45.5 2.9 | 0.0 0.5 | E | 96 | 0.7 2.0 | 0.00 | 0.00 | 48.8 2.4 | 43.5 1.8 |
| Dollarhide Base | 9/1/26 | 0730 | 52.1 2.3 | 96 4 | 51.0 1.0 | 0.7 0.4 | NNW | 333 | 2.1 0.1 | 0.00 | 0.00 | 57.1 3.4 | 50.9 1.8 |
| Dollarhide 16A Remote | 9/1/26 | 0730 | 50.7 0.9 | 97 1 | 49.8 0.7 | - | - | - | - | - | 58.1 0.5 | 48.4 2.0 |
| Hardin Rd (Eakle) | 9/1/26 | 0730 | 51.5 0.8 | - | - | - | - | - | - | - | 58.2 2.3 | 48.2 0.5 |
| Angwin | 9/1/26 | 0730 | 51.3 11.0 | 89 36 | 48.2 3.0 | 2.5 0.3 | ESE | 110 | 8.1 3.8 | 0.00 | 0.00 | 51.9 14.2 | 49.6 8.8 |
| Lower Angwin (Pioneer) | 9/1/26 | 0730 | 53.5 3.4 | - | - | 2.6 1.3 | WSW | 244 | 8.6 4.2 | - | - | 53.6 2.4 | 50.9 10.4 |
| Las Posadas (Cal Fire) | 9/1/26 | 0730 | 55.1 3.7 | 84 15 | 50.2 0.7 | 4.7 3.1 | S | 178 | 7.2 4.1 | 0.00 | 0.00 | 55.4 0.5 | 50.8 0.4 |
| Lower Chiles Valley (Brown) | 9/1/26 | 0730 | 58.5 5.1 | 70 20 | 48.9 1.8 | 1.7 0.0 | WSW | 256 | 6.5 3.0 | 0.00 | 0.00 | 58.7 3.0 | 56.4 4.2 |
| Moss Creek Vineyard/Reservior | 9/1/26 | 0615 | 56.5 6.1 | 74 19 | 48.3 0.1 | - | - | - | 0.00 | 0.00 | 58.2 2.7 | 56.3 6.3 |
| Max | 58.5 | 100 | 51.0 | 4.7 | - | 8.6 | 0.00 | 0.00 | 58.7 | 56.4 | ||
| Avg | 51.5 | 89 | 48.9 | 2.0 | - | 5.5 | 0.00 | - | - | - | ||
| Min | 45.5 | 70 | 45.5 | 0.0 | - | 0.7 | 0.00 | 0.00 | 48.8 | 41.9 |
| Station | Date | Time | Temp (°F) | RH (%) | Dew Pt (°F) | Wind Spd (mph) | Wind Dir (°) | Wind Gust (mph) | Latest Rain (In) | Daily Rain (In) | Daily Max Temp (°F) | Daily Min Temp (°F) |
|---|---|---|---|---|---|---|---|---|---|---|---|---|
| Tenma (North Calistoga) | 9/1/26 | 0730 | 59.8 2.7 | - | - | - | - | - | 0.00 | 0.00 | 59.8 1.4 | 53.9 1.2 |
| Calistoga-Solari | 9/1/26 | 0730 | 58.2 1.9 | 79 7 | 51.8 0.6 | 1.9 1.2 | NW | 306 | 4.7 1.3 | 0.00 | 0.00 | 58.6 0.7 | 53.6 2.6 |
| Calistoga-North | 9/1/26 | 0730 | 59.6 2.4 | 79 8 | 53.1 0.3 | - | - | - | 0.00 | 0.00 | 59.9 0.9 | 56.0 0.9 |
| Twomey Calistoga | 9/1/26 | 0730 | 59.3 1.8 | 77 5 | 52.0 0.1 | 1.0 0.4 | W | 265 | 3.1 0.3 | 0.00 | 0.00 | 59.3 0.5 | 52.1 4.8 |
| Paloma | 9/1/26 | 0730 | 59.9 2.7 | 74 9 | 51.8 0.5 | 2.3 0.8 | ESE | 103 | 6.1 1.1 | 0.00 | 0.00 | 59.9 1.7 | 56.4 0.3 |
| Calistoga (Ranch 78) | 9/1/26 | 0730 | 59.3 2.3 | 74 8 | 51.2 0.4 | 2.0 0.6 | NW | 310 | 4.5 1.9 | 0.00 | 0.00 | 59.3 0.9 | 54.7 1.7 |
| Diamond Mtn (Schramsberg) | 9/1/26 | 0730 | 56.0 2.9 | 82 16 | 50.8 1.8 | - | - | - | 0.00 | 0.00 | 56.3 1.0 | 53.7 0.8 |
| Diamond Mtn (McEachran) | 9/1/26 | 0730 | 57.5 1.8 | 80 7 | 51.4 0.4 | - | - | - | - | - | 58.2 0.5 | 54.3 1.2 |
| Deer Park | 9/1/26 | 0730 | 58.0 3.3 | 79 9 | 51.4 0.1 | 1.7 1.8 | W | 265 | 3.2 3.7 | 0.00 | 0.00 | 58.2 1.5 | 55.8 1.3 |
| St. Helena-North | 9/1/26 | 0730 | 59.4 2.1 | 72 5 | 50.5 0.4 | 0.2 1.7 | WNW | 298 | 1.3 2.9 | 0.00 | 0.00 | 59.8 0.4 | 54.4 2.5 |
| St. Helena (NVV Office) | 9/1/26 | 0730 | 60.4 2.7 | - | - | 0.6 0.1 | NNE | 20 | 1.8 0.1 | 0.00 | 0.00 | 60.6 1.1 | 57.2 0.1 |
| Tiara Fria (East St. Helena) | 9/1/26 | 0730 | 60.3 2.8 | 73 8 | 51.7 0.0 | 1.5 0.8 | SE | 133 | 3.1 2.5 | 0.00 | 0.00 | 60.5 1.4 | 55.6 1.8 |
| Prisoner Winery | 9/1/26 | 0730 | 60.0 2.6 | 74 7 | 51.8 0.2 | 0.3 0.8 | ESE | 121 | 2.0 1.7 | 0.00 | 0.00 | 60.2 1.6 | 53.2 2.8 |
| Rutherford Hill Estate | 9/1/26 | 0730 | 59.3 3.5 | 73 12 | 50.8 0.7 | 0.7 0.6 | S | 173 | 3.5 2.0 | 0.00 | 0.00 | 59.5 2.3 | 57.1 1.4 |
| Rutherford-North (Mee Ln) | 9/1/26 | 0730 | 60.3 3.3 | 72 8 | 51.3 0.2 | 1.9 0.9 | SE | 133 | 3.5 2.2 | 0.00 | 0.00 | 60.6 2.9 | 53.1 0.9 |
| Rutherford (STS) | 9/1/26 | 0730 | 61.6 4.3 | 75 11 | 53.8 0.6 | 1.6 0.5 | WSW | 244 | 4.2 1.8 | 0.00 | 0.00 | 61.6 2.9 | 55.8 1.1 |
| Silver Oak OV | 9/1/26 | 0730 | 60.8 3.7 | 71 10 | 51.6 0.0 | 2.0 2.0 | S | 172 | 4.2 2.6 | 0.00 | 0.00 | 61.2 2.0 | 58.2 1.2 |
| Oakville-NE (Ranch 88) | 9/1/26 | 0730 | 60.5 3.3 | 68 10 | 49.8 0.4 | 0.4 1.8 | S | 185 | 3.7 1.6 | 0.00 | 0.00 | 60.7 1.8 | 57.5 0.4 |
| Crossroads Ranch | 9/1/26 | 0730 | 61.0 3.8 | 72 9 | 52.1 0.4 | 1.6 1.8 | SSE | 166 | 3.3 2.8 | 0.00 | 0.00 | 61.2 1.8 | 58.5 1.2 |
| Oakville | 9/1/26 | 0730 | 61.0 4.1 | 70 11 | 51.0 0.0 | 2.3 0.5 | SW | 214 | 5.2 0.3 | 0.00 | 0.00 | 61.4 2.4 | 58.8 1.9 |
| To Kalon Remote (TKKE) | 9/1/26 | 0730 | 61.4 3.9 | - | - | - | - | - | - | - | 61.7 2.7 | 58.0 0.8 |
| To Kalon | 9/1/26 | 0730 | 60.8 4.0 | 74 10 | 52.4 0.3 | 1.8 1.1 | SW | 235 | 3.7 2.1 | 0.00 | 0.00 | 61.0 2.6 | 59.5 2.6 |
| To Kalon Remote (TKN5) | 9/1/26 | 0730 | 61.7 4.2 | - | - | - | - | - | - | - | 61.8 2.2 | 60.2 3.0 |
| Jump Rock | 9/1/26 | 0730 | 55.4 4.2 | 83 14 | 50.2 0.2 | 1.5 0.5 | WNW | 286 | 4.2 0.9 | 0.00 | 0.00 | 55.7 3.4 | 54.1 10.3 |
| State Lane Ranch | 9/1/26 | 0730 | 60.8 3.4 | 78 7 | 54.0 1.1 | 3.0 0.3 | ESE | 117 | 5.6 1.3 | 0.00 | 0.00 | 60.9 1.4 | 58.8 1.5 |
| Yountville (Ranch 67) | 9/1/26 | 0730 | 60.1 4.1 | 70 9 | 50.4 0.7 | 0.1 3.4 | SSW | 204 | 1.0 5.3 | 0.00 | 0.00 | 60.7 2.2 | 58.2 2.3 |
| Borreo (Soda Canyon) | 9/1/26 | 0700 | 56.9 2.5 | 82 2 | 51.6 1.7 | 0.5 0.7 | SE | 125 | 1.7 1.6 | 0.00 | 0.00 | 58.8 2.3 | 56.8 2.5 |
| Wappo Hill Floor | 9/1/26 | 0730 | 60.4 3.5 | 76 6 | 52.8 1.5 | 1.2 0.8 | SE | 145 | 3.1 1.0 | 0.00 | 0.00 | 61.5 2.2 | 59.1 2.3 |
| Wappo Hill | 9/1/26 | 0730 | 59.9 3.4 | 76 6 | 52.3 1.1 | 1.3 0.8 | SE | 128 | 3.1 1.1 | 0.00 | 0.00 | 61.0 2.2 | 58.8 2.5 |
| Stags Leap Dist (Chimney Rock) | 9/1/26 | 0730 | 60.4 2.9 | 81 2 | 54.5 2.1 | 1.4 1.0 | SE | 145 | 3.3 2.2 | 0.00 | 0.00 | 61.5 1.8 | 59.3 2.0 |
| Stags Leap Dist (Silverado Vineyards) | 9/1/26 | 0730 | 60.5 4.6 | 69 13 | 50.2 0.1 | 1.1 1.9 | S | 186 | 3.1 2.1 | 0.00 | 0.00 | 60.6 2.0 | 58.4 2.5 |
| Yountville-SE (Ranch 85) | 9/1/26 | 0730 | 60.0 2.9 | 79 4 | 53.6 1.4 | 1.2 0.3 | S | 177 | 2.7 1.5 | 0.00 | 0.00 | 61.3 1.9 | 59.1 2.2 |
| Yountville-South (Ranch 87) | 9/1/26 | 0730 | 60.2 3.5 | 77 6 | 53.1 1.2 | 0.2 2.6 | ENE | 73 | 1.1 4.4 | 0.00 | 0.00 | 61.4 1.9 | 59.0 2.5 |
| Max | 61.7 | 83 | 54.5 | 3.0 | - | 6.1 | 0.00 | 0.00 | 61.8 | 60.2 | ||
| Avg | 59.7 | 76 | 51.8 | 1.3 | - | 3.3 | 0.00 | - | - | - | ||
| Min | 55.4 | 68 | 49.8 | 0.1 | - | 1.0 | 0.00 | 0.00 | 55.7 | 52.1 |
| Station | Date | Time | Temp (°F) | RH (%) | Dew Pt (°F) | Wind Spd (mph) | Wind Dir (°) | Wind Gust (mph) | Latest Rain (In) | Daily Rain (In) | Daily Max Temp (°F) | Daily Min Temp (°F) |
|---|---|---|---|---|---|---|---|---|---|---|---|---|
| Mt. Veeder | 9/1/26 | 0715 | 54.5 5.4 | 83 17 | 49.5 0.5 | 0.6 0.5 | E | 97 | 2.8 2.0 | 0.00 | 0.00 | 54.8 0.9 | 54.0 5.1 |
| Soda Canyon | 9/1/26 | 0730 | 59.8 2.8 | 82 1 | 54.4 3.0 | 0.7 2.5 | ENE | 76 | 1.9 4.1 | 0.00 | 0.00 | 61.2 2.0 | 58.3 1.5 |
| Big Ranch Rd | 9/1/26 | 0730 | 61.0 4.0 | - | - | - | - | - | - | - | 61.6 2.7 | 59.0 2.2 |
| Oak Knoll-East (Ranch 53) | 9/1/26 | 0730 | 60.3 3.7 | 78 3 | 53.5 2.6 | 2.1 0.6 | SW | 216 | 5.4 1.6 | 0.00 | 0.00 | 61.4 3.3 | 58.9 3.0 |
| Napa-NW (Ranch 54) | 9/1/26 | 0730 | 60.4 3.2 | 79 2 | 53.7 2.3 | 0.7 0.2 | SSW | 197 | 2.7 0.3 | 0.00 | 0.00 | 61.5 3.7 | 58.6 8.2 |
| Frisinger Napa-NW | 9/1/26 | 0730 | 60.3 4.1 | 81 4 | 54.5 2.7 | 2.5 0.5 | SW | 228 | 4.5 1.5 | 0.00 | 0.00 | 61.3 4.2 | 57.6 7.7 |
| Napa-North (Ranch 29) | 9/1/26 | 0730 | 60.1 4.2 | 83 1 | 54.9 3.7 | 2.0 0.7 | SSW | 211 | 4.5 2.7 | 0.00 | 0.00 | 60.8 2.1 | 58.2 2.4 |
| Mount George (Napa East) | 9/1/26 | 0730 | 59.4 4.5 | 84 1 | 54.6 4.0 | 1.0 0.3 | E | 86 | 2.7 1.4 | 0.00 | 0.00 | 59.8 0.8 | 57.7 2.9 |
| Napa-East (Palmaz 300') | 9/1/26 | 0730 | 59.3 3.6 | 85 1 | 54.9 3.9 | 0.0 0.0 | N | 0 | 0.0 0.0 | 0.00 | 0.00 | 60.0 1.5 | 57.5 2.1 |
| Napa-East (Palmaz 1200') | 7/4/26 | 0630 | 49.8 0.1 | 72 2 | 40.8 1.0 | 0.2 0.5 | E | 79 | 2.0 0.4 | - | - | 51.0 1.7 | 48.0 0.9 |
| Napa-East (Palmaz 1400') | 9/1/26 | 0730 | 53.9 3.6 | 100 0 | 53.9 3.6 | 1.3 2.5 | SW | 233 | 6.5 2.7 | 0.00 | 0.00 | 54.1 0.9 | 53.1 2.9 |
| Wooden Valley | 9/1/26 | 0730 | 58.2 4.7 | 74 13 | 49.9 0.3 | 2.4 2.7 | NNW | 337 | 5.8 4.8 | 0.00 | 0.00 | 58.6 2.4 | 57.0 3.9 |
| Napa-West Upper (Truchard) | 9/1/26 | 0730 | 58.8 4.5 | 93 3 | 56.9 3.6 | 1.7 1.5 | WSW | 240 | 4.2 2.3 | 0.00 | 0.00 | 59.6 3.9 | 55.4 2.5 |
| Napa-West Lower (Truchard) | 9/1/26 | 0730 | 58.7 4.4 | 88 2 | 55.3 3.9 | - | - | - | - | - | 60.2 5.3 | 53.6 8.7 |
| Sunset Rd | 9/1/26 | 0730 | 59.5 4.5 | 84 2 | 54.6 3.8 | 1.5 1.1 | W | 267 | 3.7 2.6 | 0.00 | 0.00 | 60.2 4.1 | 55.6 7.1 |
| Napa-South (Toyon Farms) | 9/1/26 | 0730 | 59.7 4.5 | 92 0 | 57.3 4.4 | 2.2 2.2 | WSW | 243 | 4.8 4.8 | 0.00 | 0.00 | 60.3 3.3 | 56.7 3.4 |
| Dealy Lane (Ranch 80) | 9/1/26 | 0730 | 59.8 4.8 | 85 2 | 55.4 4.1 | 2.0 0.4 | W | 263 | 5.3 1.3 | 0.00 | 0.00 | 59.9 3.7 | 52.8 2.4 |
| Carneros (Saintsbury) | 9/1/26 | 0730 | 57.6 5.9 | 88 3 | 54.1 4.8 | 3.5 1.1 | SW | 225 | 6.7 2.2 | 0.00 | 0.00 | 58.6 5.8 | 55.1 5.7 |
| Suscol Lower (Ranch 35) | 9/1/26 | 0730 | 59.8 4.8 | 86 0 | 55.5 4.5 | 3.6 1.2 | WSW | 250 | 6.3 1.8 | 0.00 | 0.00 | 60.0 1.7 | 56.7 2.7 |
| Suscol Mtn (Ranch 93) | 9/1/26 | 0730 | 56.0 4.2 | 96 0 | 55.0 4.4 | 10.4 3.7 | NW | 324 | 13.5 3.0 | 0.00 | 0.00 | 56.2 1.3 | 54.3 2.9 |
| Suscol Upper (Ranch 92) | 9/1/26 | 0730 | 56.7 4.2 | 0 45 | -58.6 48.9 | 2.3 1.0 | WSW | 257 | 8.2 1.3 | 0.00 | 0.00 | 57.1 1.6 | 55.2 2.8 |
| Carneros (Mitsuko) | 9/1/26 | 0730 | 60.2 5.4 | - | - | - | - | - | - | - | 60.5 4.2 | 57.0 11.0 |
| Sugarloaf West | 9/1/26 | 0730 | 60.6 4.8 | 86 0 | 56.4 4.6 | 2.4 0.2 | SW | 231 | 4.7 0.1 | 0.00 | 0.00 | 60.7 1.3 | 58.1 3.0 |
| Stanly (Ranch 45) | 9/1/26 | 0730 | 59.3 5.0 | 85 1 | 54.9 4.5 | 2.7 0.7 | WSW | 244 | 4.7 0.4 | 0.00 | 0.00 | 60.0 2.6 | 57.4 4.1 |
| Carneros (Las Amigas Rd) | 9/1/26 | 0730 | 60.4 5.1 | - | - | - | - | - | - | - | 60.4 4.1 | 57.4 6.3 |
| Carneros (Milton Rd) | 9/1/26 | 0730 | 60.6 5.3 | 85 4 | 56.0 3.9 | - | - | - | 0.00 | 0.00 | 60.8 2.6 | 57.7 6.0 |
| Carneros (Ranch 71) | 9/1/26 | 0730 | 58.8 5.1 | 89 2 | 55.7 4.4 | 6.5 2.3 | W | 263 | 8.9 2.4 | 0.00 | 0.00 | 58.9 3.6 | 56.7 5.5 |
| Carneros Upper (Ranch 81) | 9/1/26 | 0730 | 58.9 5.0 | 88 2 | 55.3 4.3 | 6.9 1.3 | WSW | 253 | 10.0 1.4 | - | - | 58.9 3.8 | 56.9 4.8 |
| Carneros Lower (Ranch 81) | 9/1/26 | 0730 | 59.7 5.3 | 89 4 | 56.3 4.2 | 0.4 0.3 | SSE | 163 | 2.3 0.6 | 0.00 | 0.00 | 60.0 5.1 | 57.1 7.0 |
| Toyon Remote 1 | 9/1/26 | 0730 | 59.5 4.3 | - | - | - | - | - | - | - | 60.5 4.2 | 53.8 4.4 |
| Toyon Remote 2 | 9/1/26 | 0730 | 60.5 4.9 | - | - | - | - | - | - | - | 60.8 3.5 | 52.6 2.0 |
| Toyon Remote 3 | 9/1/26 | 0730 | 60.2 5.0 | - | - | - | - | - | - | - | 60.8 4.4 | 52.5 4.4 |
| Max | 61.0 | 100 | 57.3 | 10.4 | - | 13.5 | 0.00 | 0.00 | 61.6 | 59.0 | ||
| Avg | 59.1 | 82 | 50.2 | 2.6 | - | 5.2 | 0.00 | - | - | - | ||
| Min | 53.9 | 0 | -58.6 | 0.0 | - | 0.0 | 0.00 | 0.00 | 54.1 | 52.5 |